Time;durP1;ratioP1;P1;durP2;ratioP2;P2;SDS_P1;SDS_P2;PMS_P1;PMS_P2;Temp;Humidity;BMP_temperature;BMP_pressure;BME280_temperature;BME280_humidity;BME280_pressure;Samples;Min_cycle;Max_cycle;Signal;HPM_P1;HPM_P2
2022/11/22 00:01:40;;;;;;;2.63;0.70;;;;;;;22.17;30.51;102525.13;4211718;28;20475;-66
2022/11/22 00:03:41;;;;;;;0.57;0.50;;;;;;;22.17;30.27;102519.56;4214254;28;20093;-67
2022/11/22 00:05:42;;;;;;;0.98;0.60;;;;;;;22.16;30.36;102514.25;4214142;28;20090;-66
2022/11/22 00:07:47;;;;;;;1.10;0.52;;;;;;;22.08;30.35;102504.28;4213392;28;20036;-66
2022/11/22 00:09:48;;;;;;;0.47;0.45;;;;;;;22.12;30.66;102508.31;4214191;28;20032;-66
2022/11/22 00:11:50;;;;;;;0.65;0.60;;;;;;;22.14;30.62;102514.50;4214444;28;20043;-66
2022/11/22 00:13:51;;;;;;;1.13;0.65;;;;;;;21.92;30.81;102477.25;4216701;28;20040;-66
2022/11/22 00:16:05;;;;;;;1.02;0.60;;;;;;;21.98;30.58;102479.03;4217683;28;20097;-66
2022/11/22 00:18:06;;;;;;;1.33;0.60;;;;;;;22.13;30.52;102511.94;4216812;28;20475;-66
2022/11/22 00:20:10;;;;;;;1.00;0.65;;;;;;;22.07;30.38;102491.47;4217353;28;20040;-66
2022/11/22 00:22:11;;;;;;;1.98;0.60;;;;;;;22.14;30.34;102508.09;4217074;28;20434;-66
2022/11/22 00:24:13;;;;;;;2.10;0.68;;;;;;;22.13;30.65;102507.25;4217382;28;20097;-66
2022/11/22 00:26:15;;;;;;;6.68;1.08;;;;;;;22.13;30.59;102517.50;4217112;28;20429;-66
2022/11/22 00:28:16;;;;;;;0.80;0.60;;;;;;;22.11;30.44;102509.38;4217197;28;20044;-66
2022/11/22 00:30:17;;;;;;;0.77;0.50;;;;;;;22.10;30.76;102513.28;4217439;28;20032;-66
2022/11/22 00:32:19;;;;;;;0.68;0.68;;;;;;;22.11;30.81;102511.31;4217202;28;20093;-66
2022/11/22 00:34:20;;;;;;;1.05;0.77;;;;;;;22.08;30.81;102504.28;4216884;28;20036;-66
2022/11/22 00:36:21;;;;;;;0.88;0.70;;;;;;;22.05;30.41;102496.47;4216929;28;20089;-65
2022/11/22 00:38:23;;;;;;;1.17;0.63;;;;;;;22.12;30.29;102511.09;4216665;28;20032;-65
2022/11/22 00:40:24;;;;;;;1.90;0.63;;;;;;;22.12;30.68;102511.09;4216653;28;20150;-65
2022/11/22 00:42:25;;;;;;;1.23;0.60;;;;;;;22.11;30.31;102514.97;4216923;28;20414;-66
2022/11/22 00:44:27;;;;;;;1.05;0.60;;;;;;;22.10;30.72;102516.06;4216833;28;20409;-66
2022/11/22 00:46:28;;;;;;;0.55;0.55;;;;;;;22.08;30.53;102510.75;4216973;28;20036;-66
2022/11/22 00:48:29;;;;;;;0.65;0.65;;;;;;;22.08;30.72;102509.88;4216668;28;20081;-66
2022/11/22 00:50:31;;;;;;;0.63;0.57;;;;;;;22.09;30.71;102511.59;4216584;28;20089;-65
2022/11/22 00:52:34;;;;;;;0.80;0.60;;;;;;;22.06;30.23;102512.06;4216586;28;20039;-66
2022/11/22 00:54:36;;;;;;;1.30;0.70;;;;;;;22.05;30.68;102513.19;4216507;28;20040;-66
2022/11/22 00:56:40;;;;;;;1.75;0.70;;;;;;;22.06;30.60;102512.06;4216126;28;20081;-66
2022/11/22 00:58:41;;;;;;;2.83;0.80;;;;;;;21.80;30.44;102467.00;4216768;28;20028;-65
2022/11/22 01:00:42;;;;;;;1.50;0.73;;;;;;;22.09;30.31;102514.38;4216852;28;20024;-65
2022/11/22 01:02:43;;;;;;;0.75;0.65;;;;;;;22.11;30.30;102511.31;4216493;28;20127;-66
2022/11/22 01:04:46;;;;;;;1.17;0.77;;;;;;;22.06;30.37;102507.34;4216694;28;20085;-68
2022/11/22 01:06:47;;;;;;;1.23;0.70;;;;;;;22.10;30.56;102513.28;4216525;28;20441;-66
2022/11/22 01:08:48;;;;;;;1.63;0.60;;;;;;;22.11;30.56;102505.75;4216388;28;20181;-66
2022/11/22 01:10:58;;;;;;;0.93;0.80;;;;;;;22.08;30.68;102505.16;4216203;28;20040;-65
2022/11/22 01:12:59;;;;;;;1.63;0.40;;;;;;;22.04;30.36;102497.56;4216242;28;20058;-66
2022/11/22 01:15:01;;;;;;;0.70;0.52;;;;;;;22.11;30.17;102508.53;4216512;28;20040;-65
2022/11/22 01:17:03;;;;;;;1.75;0.70;;;;;;;22.09;30.14;102508.81;4215776;28;20044;-65
2022/11/22 01:19:04;;;;;;;1.08;0.70;;;;;;;22.06;30.32;102512.06;4216525;28;20101;-66
2022/11/22 01:21:05;;;;;;;2.35;0.80;;;;;;;22.06;30.15;102506.50;4214729;28;20069;-68
2022/11/22 01:23:07;;;;;;;1.70;0.70;;;;;;;22.00;30.23;102501.94;4216470;28;20032;-65
2022/11/22 01:25:11;;;;;;;1.23;0.60;;;;;;;22.04;30.49;102497.56;4215596;28;20031;-65
2022/11/22 01:27:12;;;;;;;1.00;0.60;;;;;;;22.05;30.16;102500.09;4216004;28;20062;-66
2022/11/22 01:29:17;;;;;;;1.33;0.65;;;;;;;22.05;30.47;102499.25;4216248;28;20292;-68
2022/11/22 01:31:18;;;;;;;1.77;1.02;;;;;;;22.05;30.19;102499.25;4215872;28;20047;-66
2022/11/22 01:33:20;;;;;;;0.65;0.55;;;;;;;22.05;30.44;102500.09;4215855;28;20040;-68
2022/11/22 01:35:21;;;;;;;2.08;0.77;;;;;;;22.05;30.51;102496.47;4216157;28;20036;-65
2022/11/22 01:37:23;;;;;;;2.55;0.70;;;;;;;22.04;30.82;102492.81;4215472;28;20036;-64
2022/11/22 01:39:24;;;;;;;2.10;0.70;;;;;;;22.04;30.66;102494.78;4216079;28;20097;-65
2022/11/22 01:41:25;;;;;;;0.60;0.60;;;;;;;22.06;30.48;102495.34;4215807;28;20081;-65
2022/11/22 01:43:27;;;;;;;0.65;0.60;;;;;;;22.03;30.49;102507.00;4215828;28;20036;-67
2022/11/22 01:45:29;;;;;;;0.98;0.75;;;;;;;22.06;30.61;102500.94;4215944;28;20036;-66
2022/11/22 01:47:30;;;;;;;1.05;0.70;;;;;;;22.07;30.62;102505.41;4215269;28;20101;-62
2022/11/22 01:50:00;;;;;;;0.95;0.70;;;;;;;22.05;30.32;102500.09;4206168;28;20066;-62
2022/11/22 01:52:07;;;;;;;1.00;0.70;;;;;;;22.11;30.36;102503.81;4214945;28;20102;-62
2022/11/22 01:54:18;;;;;;;1.20;0.60;;;;;;;22.12;30.50;102505.53;4214924;28;20044;-62
2022/11/22 01:56:21;;;;;;;1.45;0.80;;;;;;;22.04;30.76;102492.00;4213843;28;20044;-63
2022/11/22 01:58:24;;;;;;;1.00;0.80;;;;;;;22.13;30.65;102501.66;4214436;28;20150;-63
2022/11/22 02:00:26;;;;;;;1.23;0.80;;;;;;;22.13;30.56;102510.03;4210339;28;20102;-64
2022/11/22 02:02:27;;;;;;;1.48;1.00;;;;;;;22.12;30.52;102505.53;4199090;28;20067;-64
2022/11/22 02:04:31;;;;;;;1.50;0.80;;;;;;;22.15;30.71;102501.41;4208955;28;20040;-62
2022/11/22 02:06:52;;;;;;;2.10;0.80;;;;;;;22.02;30.63;102489.44;4215244;28;20039;-63
2022/11/22 02:09:03;;;;;;;0.98;0.68;;;;;;;22.13;30.57;102501.66;4215830;28;20074;-62
2022/11/22 02:11:10;;;;;;;2.90;0.70;;;;;;;22.16;30.80;102509.50;4216030;28;20081;-63
2022/11/22 02:13:13;;;;;;;1.35;0.82;;;;;;;22.06;30.60;102490.63;4230789;28;20069;-62
2022/11/22 02:15:14;;;;;;;1.15;0.95;;;;;;;22.16;30.55;102509.50;4232520;28;20023;-63
2022/11/22 02:17:16;;;;;;;0.85;0.50;;;;;;;22.14;30.56;102508.91;4216642;28;20105;-63
2022/11/22 02:19:36;;;;;;;1.50;0.77;;;;;;;22.09;30.51;102494.84;4214535;28;20040;-65
2022/11/22 02:21:38;;;;;;;1.20;0.80;;;;;;;22.14;30.56;102502.50;4206480;28;20093;-62
2022/11/22 02:23:41;;;;;;;1.98;0.98;;;;;;;22.18;30.53;102503.69;4215891;28;20085;-61
2022/11/22 02:25:58;;;;;;;1.10;0.80;;;;;;;22.15;30.68;102510.59;4215314;28;20043;-62
2022/11/22 02:27:59;;;;;;;12.07;1.23;;;;;;;22.17;30.98;102515.91;4215379;28;20039;-62
2022/11/22 02:30:00;;;;;;;5.25;0.90;;;;;;;22.17;30.76;102504.75;4215800;28;20093;-62
2022/11/22 02:32:05;;;;;;;2.13;0.73;;;;;;;22.16;30.80;102505.88;4215582;28;20050;-62
2022/11/22 02:34:10;;;;;;;2.05;0.90;;;;;;;22.16;30.67;102512.28;4212855;28;20040;-61
2022/11/22 02:36:12;;;;;;;1.10;0.80;;;;;;;22.16;30.83;102506.72;4214461;28;20097;-61
2022/11/22 02:38:20;;;;;;;3.22;0.80;;;;;;;22.17;30.69;102508.41;4215566;28;20032;-62
2022/11/22 02:40:23;;;;;;;3.10;0.82;;;;;;;22.10;30.81;102501.28;4214899;28;20097;-62
2022/11/22 02:42:29;;;;;;;3.88;1.10;;;;;;;22.18;30.85;102515.69;4215123;28;20036;-62
2022/11/22 02:44:30;;;;;;;8.02;0.90;;;;;;;22.15;31.16;102510.59;4215204;28;20032;-61
2022/11/22 02:46:32;;;;;;;5.43;1.20;;;;;;;22.18;30.89;102514.84;4216760;28;20040;-62
2022/11/22 02:48:39;;;;;;;10.60;1.17;;;;;;;22.18;31.05;102521.25;4204981;28;20052;-59
2022/11/22 02:50:40;;;;;;;3.75;0.95;;;;;;;22.19;30.99;102517.38;4212757;28;20114;-60
2022/11/22 02:52:42;;;;;;;17.98;1.90;;;;;;;22.18;31.49;102517.63;4201756;28;20044;-63
2022/11/22 02:54:43;;;;;;;8.18;1.42;;;;;;;22.15;31.14;102504.19;4205639;28;20487;-61
2022/11/22 02:56:45;;;;;;;7.50;1.25;;;;;;;22.19;31.31;102517.38;4210915;28;20040;-61
2022/11/22 02:58:52;;;;;;;9.45;1.25;;;;;;;22.19;31.43;102511.78;4211311;28;20036;-61
2022/11/22 03:00:53;;;;;;;3.42;1.10;;;;;;;22.20;31.17;102507.91;4198025;28;20452;-61
2022/11/22 03:02:57;;;;;;;5.03;1.17;;;;;;;22.04;31.12;102480.84;4196965;28;20098;-61
2022/11/22 03:04:58;;;;;;;7.32;1.10;;;;;;;22.19;31.33;102513.75;4197680;28;20067;-62
2022/11/22 03:07:03;;;;;;;2.55;0.82;;;;;;;22.15;31.11;102509.75;4200051;28;20086;-62
2022/11/22 03:09:04;;;;;;;9.15;1.25;;;;;;;22.22;31.48;102519.66;4212100;28;20032;-61
2022/11/22 03:11:05;;;;;;;4.35;1.20;;;;;;;22.08;31.05;102499.59;4214833;28;20430;-62
2022/11/22 03:13:07;;;;;;;3.95;1.45;;;;;;;22.20;31.36;102519.06;4208545;28;20093;-61
2022/11/22 03:15:08;;;;;;;8.88;2.35;;;;;;;22.21;31.28;102526.31;4215060;28;20475;-61
2022/11/22 03:17:10;;;;;;;4.05;0.90;;;;;;;22.21;31.41;102517.94;4214297;28;20040;-61
2022/11/22 03:19:12;;;;;;;3.60;1.17;;;;;;;22.19;31.52;102520.16;4214293;28;20045;-61
2022/11/22 03:21:13;;;;;;;6.53;1.00;;;;;;;22.21;31.42;102522.69;4215608;28;20093;-61
2022/11/22 03:23:17;;;;;;;4.10;1.15;;;;;;;22.18;31.09;102518.47;4215802;28;20548;-61
2022/11/22 03:25:19;;;;;;;5.50;1.10;;;;;;;22.21;31.30;102531.91;4206242;28;20475;-60
2022/11/22 03:27:23;;;;;;;4.65;1.50;;;;;;;22.19;31.41;102528.53;4214894;28;20525;-61
2022/11/22 03:29:27;;;;;;;5.32;1.30;;;;;;;22.20;31.49;102527.41;4214875;28;20098;-60
2022/11/22 03:31:28;;;;;;;3.47;0.80;;;;;;;22.20;31.34;102530.22;4214988;28;20124;-61
2022/11/22 03:33:29;;;;;;;3.08;1.15;;;;;;;22.20;31.31;102530.22;4214793;28;20090;-61
2022/11/22 03:35:31;;;;;;;7.00;1.10;;;;;;;22.14;31.54;102520.06;4217019;28;20097;-61
2022/11/22 03:37:32;;;;;;;2.15;0.90;;;;;;;22.15;31.40;102526.50;4214038;28;20036;-61
2022/11/22 03:39:39;;;;;;;1.25;1.13;;;;;;;22.13;31.58;102528.66;4208178;28;20028;-61
2022/11/22 03:41:40;;;;;;;1.55;0.95;;;;;;;22.12;31.76;102529.78;4212218;28;20032;-62
2022/11/22 03:43:41;;;;;;;2.50;0.73;;;;;;;22.11;31.64;102525.25;4208157;28;20024;-61
2022/11/22 03:45:46;;;;;;;3.50;0.80;;;;;;;22.10;31.56;102535.56;4213056;28;20121;-61
2022/11/22 03:47:50;;;;;;;3.85;1.00;;;;;;;22.13;31.58;102529.53;4208046;28;20044;-62
2022/11/22 03:49:51;;;;;;;2.70;1.38;;;;;;;22.15;32.02;102530.13;4213345;28;20555;-62
2022/11/22 03:51:52;;;;;;;4.25;1.10;;;;;;;22.16;32.31;102540.16;4214532;28;20036;-62
2022/11/22 03:53:53;;;;;;;5.57;1.10;;;;;;;22.13;32.92;102546.28;4208809;28;20105;-61
2022/11/22 03:56:13;;;;;;;5.97;1.10;;;;;;;22.20;33.78;102537.72;4206945;28;20036;-61
2022/11/22 03:58:17;;;;;;;7.68;1.10;;;;;;;22.24;34.45;102542.56;4210063;28;20081;-61
2022/11/22 04:00:22;;;;;;;3.97;1.10;;;;;;;22.24;34.76;102541.72;4211035;28;20048;-61
2022/11/22 04:02:23;;;;;;;;;;;;;;;22.24;34.83;102536.97;4214582;28;20044;-60
2022/11/22 04:04:24;;;;;;;5.35;1.10;;;;;;;22.35;34.84;102562.25;4214404;28;20362;-62
2022/11/22 04:06:25;;;;;;;4.40;1.50;;;;;;;22.22;34.86;102532.75;4209910;28;20081;-61
2022/11/22 04:08:27;;;;;;;2.97;1.10;;;;;;;22.32;34.71;102547.72;4197513;28;20048;-61
2022/11/22 04:10:28;;;;;;;3.58;1.00;;;;;;;22.32;34.65;102556.09;4199867;28;20554;-61
2022/11/22 04:12:32;;;;;;;2.33;0.90;;;;;;;22.27;34.74;102547.63;4214107;28;20437;-59
2022/11/22 04:16:53;;;;;;;4.15;1.17;;;;;;;22.35;34.54;102565.03;4214257;28;20102;-61
2022/11/22 04:18:54;;;;;;;1.88;0.80;;;;;;;22.33;34.25;102556.94;4211689;28;20085;-62
2022/11/22 04:23:18;;;;;;;2.15;0.90;;;;;;;22.29;34.14;102556.59;4207801;28;20071;-60
2022/11/22 04:25:22;;;;;;;1.73;1.20;;;;;;;22.37;34.33;102562.88;4197092;28;20049;-61
2022/11/22 04:27:24;;;;;;;2.88;1.00;;;;;;;22.38;34.09;102570.97;4199550;28;20033;-62
2022/11/22 04:29:28;;;;;;;2.20;0.80;;;;;;;22.40;34.06;102576.28;4212511;28;20066;-60
2022/11/22 04:33:51;;;;;;;2.05;0.90;;;;;;;22.40;33.65;102577.13;4214161;28;20082;-61
2022/11/22 04:35:53;;;;;;;2.22;0.90;;;;;;;22.42;33.60;102588.06;4214213;28;20044;-61
2022/11/22 04:37:54;;;;;;;1.40;0.80;;;;;;;22.40;33.73;102584.66;4213329;28;20036;-62
2022/11/22 04:39:55;;;;;;;2.58;0.82;;;;;;;22.41;33.47;102589.16;4213675;28;20047;-61
2022/11/22 04:44:40;;;;;;;2.65;0.95;;;;;;;22.27;33.55;102564.38;4214815;28;20077;-62
2022/11/22 04:46:41;;;;;;;1.80;0.90;;;;;;;22.45;33.48;102590.31;4211817;28;20052;-61
2022/11/22 04:48:43;;;;;;;2.17;0.95;;;;;;;22.45;33.47;102598.69;4213550;28;20490;-62
2022/11/22 04:53:04;;;;;;;2.60;0.90;;;;;;;22.46;33.73;102594.81;4200240;28;20084;-62
2022/11/22 04:55:08;;;;;;;2.35;0.90;;;;;;;22.46;33.39;102594.81;4213696;28;20032;-61
2022/11/22 04:57:09;;;;;;;2.38;0.75;;;;;;;22.46;33.43;102587.28;4213192;28;20036;-62
2022/11/22 04:59:13;;;;;;;1.40;1.00;;;;;;;22.46;33.38;102594.81;4213284;28;20098;-62
2022/11/22 05:01:15;;;;;;;3.00;1.10;;;;;;;22.47;33.53;102599.31;4216359;28;20047;-63
2022/11/22 05:03:19;;;;;;;1.67;0.80;;;;;;;22.47;33.73;102590.94;4214640;28;20169;-62
2022/11/22 05:05:22;;;;;;;2.78;1.10;;;;;;;22.32;33.54;102578.41;4233732;28;20044;-62
2022/11/22 05:07:23;;;;;;;1.98;1.00;;;;;;;22.46;33.24;102592.03;4227723;28;20039;-62
2022/11/22 05:09:24;;;;;;;3.33;0.80;;;;;;;22.47;33.32;102591.78;4202051;28;20032;-62
2022/11/22 05:11:26;;;;;;;1.70;0.80;;;;;;;22.48;33.69;102595.41;4199951;28;20040;-62
2022/11/22 05:13:39;;;;;;;1.70;0.80;;;;;;;22.45;33.31;102593.09;4199739;28;20628;-62
2022/11/22 05:15:41;;;;;;;0.80;0.80;;;;;;;22.46;33.48;102594.81;4200238;28;20044;-62
2022/11/22 05:17:42;;;;;;;3.08;0.80;;;;;;;22.49;33.71;102608.25;4206359;28;20024;-62
2022/11/22 05:19:43;;;;;;;1.35;0.88;;;;;;;22.47;33.51;102610.47;4229067;28;20035;-62
2022/11/22 05:21:44;;;;;;;2.10;1.00;;;;;;;22.47;33.63;102613.25;4233640;27;20101;-62
2022/11/22 05:23:54;;;;;;;1.83;0.95;;;;;;;22.42;33.45;102608.41;4233321;28;20036;-62
2022/11/22 05:25:56;;;;;;;0.85;0.60;;;;;;;22.51;33.23;102620.03;4232580;28;20077;-62
2022/11/22 05:27:57;;;;;;;0.93;0.80;;;;;;;22.50;33.13;102629.50;4233151;28;20051;-62
2022/11/22 05:29:58;;;;;;;1.17;0.70;;;;;;;22.51;33.56;102631.19;4231919;28;20144;-62
2022/11/22 05:32:00;;;;;;;2.20;0.98;;;;;;;22.51;33.30;102631.19;4233635;27;20479;-62
2022/11/22 05:34:02;;;;;;;1.98;0.80;;;;;;;22.44;33.40;102625.75;4233124;28;20043;-62
2022/11/22 05:36:06;;;;;;;0.93;0.60;;;;;;;22.50;33.56;102630.34;4231948;28;20031;-62
2022/11/22 05:38:08;;;;;;;2.80;1.20;;;;;;;22.52;33.19;102638.44;4233203;28;20039;-62
2022/11/22 05:40:10;;;;;;;2.60;1.00;;;;;;;22.52;33.56;102639.28;4211633;28;20421;-62
2022/11/22 05:42:11;;;;;;;1.30;0.80;;;;;;;22.42;33.48;102614.00;4206885;28;20540;-62
2022/11/22 05:44:12;;;;;;;2.63;0.88;;;;;;;22.52;33.09;102635.66;4215714;28;20093;-62
2022/11/22 05:46:20;;;;;;;3.65;0.88;;;;;;;22.50;33.65;102629.50;4208295;28;20106;-62
2022/11/22 05:48:21;;;;;;;1.33;0.80;;;;;;;22.46;33.50;102622.72;4207140;28;20036;-62
2022/11/22 05:50:22;;;;;;;1.73;0.90;;;;;;;22.48;33.29;102623.31;4215563;28;20093;-62
2022/11/22 05:52:26;;;;;;;1.58;0.98;;;;;;;22.51;33.17;102633.97;4217298;28;20085;-62
2022/11/22 05:54:29;;;;;;;1.02;0.68;;;;;;;22.50;33.34;102629.50;4227169;28;20113;-62
2022/11/22 05:56:30;;;;;;;4.47;1.42;;;;;;;22.52;33.34;102638.44;4214264;28;20027;-62
2022/11/22 05:58:32;;;;;;;1.17;1.05;;;;;;;22.52;33.40;102638.44;4215296;28;20044;-62
2022/11/22 06:00:33;;;;;;;2.45;0.90;;;;;;;22.49;33.57;102638.94;4214526;28;20101;-62
2022/11/22 06:02:34;;;;;;;1.23;0.90;;;;;;;22.48;33.57;102637.25;4215899;28;20028;-62
2022/11/22 06:04:36;;;;;;;0.80;0.80;;;;;;;22.51;33.58;102650.72;4215779;28;20090;-62
2022/11/22 06:06:37;;;;;;;2.30;0.82;;;;;;;22.50;33.68;102644.28;4214953;28;20100;-62
2022/11/22 06:08:42;;;;;;;1.00;0.80;;;;;;;22.51;33.22;102642.34;4214485;28;20027;-62
2022/11/22 06:10:46;;;;;;;1.88;1.00;;;;;;;22.52;33.53;102649.59;4212948;28;20487;-62
2022/11/22 06:12:50;;;;;;;3.73;0.90;;;;;;;22.52;33.73;102642.06;4213964;28;20089;-62
2022/11/22 06:14:51;;;;;;;2.63;0.77;;;;;;;22.51;33.72;102640.41;4204435;28;20285;-62
2022/11/22 06:16:53;;;;;;;3.85;0.80;;;;;;;22.53;33.41;102642.91;4214172;28;20744;-62
2022/11/22 06:18:54;;;;;;;2.05;0.73;;;;;;;22.50;33.61;102640.66;4215808;28;20040;-62
2022/11/22 06:21:00;;;;;;;1.58;0.80;;;;;;;22.51;33.34;102639.56;4215514;28;20036;-62
2022/11/22 06:23:02;;;;;;;1.05;0.80;;;;;;;22.49;33.39;102633.34;4215513;28;20113;-62
2022/11/22 06:25:04;;;;;;;2.92;0.90;;;;;;;22.35;33.39;102616.09;4215220;28;20032;-62
2022/11/22 06:27:05;;;;;;;2.38;0.90;;;;;;;22.51;33.24;102631.19;4215142;28;20372;-62
2022/11/22 06:29:06;;;;;;;1.30;0.80;;;;;;;22.29;33.40;102600.38;4214970;28;20479;-62
2022/11/22 06:31:19;;;;;;;1.17;0.90;;;;;;;22.49;33.27;102636.16;4215145;28;20048;-62
2022/11/22 06:33:21;;;;;;;1.17;0.90;;;;;;;22.47;33.65;102633.63;4198842;28;20036;-62
2022/11/22 06:35:22;;;;;;;1.10;0.90;;;;;;;22.49;33.39;102638.94;4198501;28;20070;-62
2022/11/22 06:37:23;;;;;;;1.63;1.00;;;;;;;22.48;33.69;102642.81;4198051;28;20040;-62
2022/11/22 06:39:24;;;;;;;0.85;0.70;;;;;;;22.48;33.29;102649.25;4198773;28;20036;-61
2022/11/22 06:41:30;;;;;;;1.15;0.65;;;;;;;22.48;33.37;102648.41;4198375;28;20101;-62
2022/11/22 06:43:33;;;;;;;1.40;1.00;;;;;;;22.47;33.35;102646.72;4201974;28;20035;-62
2022/11/22 06:45:34;;;;;;;1.95;0.80;;;;;;;22.40;33.61;102644.06;4214665;28;20430;-62
2022/11/22 06:47:36;;;;;;;1.27;0.93;;;;;;;22.46;33.47;102654.25;4214574;28;20434;-62
2022/11/22 06:49:46;;;;;;;1.13;0.80;;;;;;;22.45;33.66;102649.78;4215098;28;20105;-61
2022/11/22 06:51:47;;;;;;;1.00;0.77;;;;;;;22.43;33.55;102651.09;4214319;28;20040;-62
2022/11/22 06:53:49;;;;;;;1.40;0.90;;;;;;;22.30;33.58;102635.50;4213453;28;20097;-61
2022/11/22 06:55:53;;;;;;;2.70;0.82;;;;;;;22.46;33.28;102661.78;4212896;28;20044;-62
2022/11/22 06:57:54;;;;;;;2.08;1.02;;;;;;;22.42;33.53;102655.84;4214651;28;20036;-62
2022/11/22 06:59:56;;;;;;;2.55;0.82;;;;;;;22.39;33.11;102644.34;4214334;28;20090;-62
2022/11/22 07:02:00;;;;;;;1.00;0.90;;;;;;;22.46;33.16;102653.41;4215261;28;20093;-62
2022/11/22 07:04:01;;;;;;;1.30;1.10;;;;;;;22.27;33.48;102631.31;4210334;28;20048;-62
2022/11/22 07:06:10;;;;;;;1.75;1.10;;;;;;;22.36;33.19;102645.69;4197540;28;20046;-61
2022/11/22 07:08:12;;;;;;;1.40;0.70;;;;;;;22.47;33.48;102657.88;4206188;28;20023;-61
2022/11/22 07:10:13;;;;;;;2.58;0.70;;;;;;;22.46;32.97;102650.63;4214718;28;20549;-61
2022/11/22 07:12:17;;;;;;;1.33;0.90;;;;;;;22.47;33.45;102666.25;4214796;28;20360;-61
2022/11/22 07:14:19;;;;;;;1.17;0.80;;;;;;;22.47;33.16;102663.47;4213564;28;20120;-61
2022/11/22 07:16:21;;;;;;;1.40;1.00;;;;;;;22.46;33.33;102670.16;4213249;28;20385;-61
2022/11/22 07:18:23;;;;;;;1.10;1.00;;;;;;;22.46;33.06;102657.03;4209247;28;20509;-61
2022/11/22 07:20:24;;;;;;;1.80;0.90;;;;;;;22.46;33.18;102661.78;4201297;28;20040;-61
2022/11/22 07:22:25;;;;;;;1.98;0.90;;;;;;;22.47;33.10;102669.03;4213230;28;20086;-61
2022/11/22 07:24:29;;;;;;;1.45;0.93;;;;;;;22.47;33.01;102669.88;4214565;28;20032;-62
2022/11/22 07:26:31;;;;;;;0.90;0.80;;;;;;;22.47;33.11;102671.84;4214158;28;20556;-62
2022/11/22 07:28:32;;;;;;;1.90;1.23;;;;;;;22.46;33.33;102672.94;4213792;28;20077;-62
2022/11/22 07:30:33;;;;;;;1.42;0.70;;;;;;;22.47;33.11;102677.41;4212038;28;20040;-62
2022/11/22 07:32:34;;;;;;;1.55;1.00;;;;;;;22.42;33.49;102667.00;4211466;28;20044;-62
2022/11/22 07:34:39;;;;;;;1.73;0.80;;;;;;;22.47;33.09;102683.00;4197740;28;20117;-62
2022/11/22 07:36:43;;;;;;;1.48;1.05;;;;;;;22.47;33.17;102686.63;4196933;28;20102;-62
2022/11/22 07:38:44;;;;;;;1.58;1.00;;;;;;;22.49;33.09;102689.16;4200755;28;20137;-62
2022/11/22 07:40:46;;;;;;;1.50;1.05;;;;;;;22.45;33.18;102682.38;4210309;28;20114;-62
2022/11/22 07:42:47;;;;;;;1.83;1.20;;;;;;;22.49;33.04;102689.16;4197566;28;20097;-62
2022/11/22 07:44:48;;;;;;;1.70;0.90;;;;;;;22.40;33.49;102680.34;4197269;28;20040;-61
2022/11/22 07:46:53;;;;;;;1.77;0.82;;;;;;;22.49;33.46;102683.56;4197441;28;20044;-62
2022/11/22 07:48:55;;;;;;;1.08;0.95;;;;;;;22.47;33.45;102688.56;4197372;28;20487;-62
2022/11/22 07:50:56;;;;;;;1.33;0.90;;;;;;;22.49;33.35;102691.94;4197687;28;20045;-62
2022/11/22 07:52:58;;;;;;;1.83;1.10;;;;;;;22.49;33.27;102689.16;4197653;28;20048;-62
2022/11/22 07:55:03;;;;;;;1.77;1.25;;;;;;;22.48;33.58;102693.88;4202847;28;20049;-62
2022/11/22 07:57:07;;;;;;;2.08;0.90;;;;;;;22.49;33.08;102683.56;4196324;28;20557;-61
2022/11/22 07:59:11;;;;;;;1.77;1.10;;;;;;;22.30;33.37;102655.03;4198354;28;20040;-61
2022/11/22 08:01:17;;;;;;;1.48;0.90;;;;;;;22.50;33.20;102690.88;4211605;28;20044;-62
2022/11/22 08:03:18;;;;;;;1.30;0.90;;;;;;;22.49;33.43;102689.16;4213457;28;20105;-62
2022/11/22 08:05:20;;;;;;;1.30;1.05;;;;;;;22.50;33.23;102690.88;4204274;28;20098;-62
2022/11/22 08:07:21;;;;;;;1.27;0.98;;;;;;;22.50;33.45;102693.66;4205374;28;20036;-62
2022/11/22 08:09:22;;;;;;;2.15;0.90;;;;;;;22.49;33.35;102691.94;4204209;28;20040;-62
2022/11/22 08:11:23;;;;;;;1.60;1.02;;;;;;;22.47;33.30;102685.78;4197801;28;20105;-61
2022/11/22 08:13:25;;;;;;;2.65;1.00;;;;;;;22.46;33.41;102689.66;4197414;28;20125;-62
2022/11/22 08:15:27;;;;;;;1.58;1.05;;;;;;;22.50;33.22;102699.25;4198009;28;20037;-62
2022/11/22 08:17:28;;;;;;;1.25;0.98;;;;;;;22.49;33.08;102698.38;4197234;28;20036;-62
2022/11/22 08:19:30;;;;;;;2.10;0.95;;;;;;;22.50;33.06;102693.66;4206944;28;20093;-62
2022/11/22 08:21:35;;;;;;;1.20;0.93;;;;;;;22.49;33.39;102692.78;4202903;28;20090;-62
2022/11/22 08:23:40;;;;;;;2.55;1.10;;;;;;;22.33;33.41;102669.34;4197936;28;20102;-62
2022/11/22 08:25:41;;;;;;;;;;;;;;;22.50;33.12;102696.44;4197988;28;20125;-62
2022/11/22 08:27:45;;;;;;;1.00;0.80;;;;;;;22.58;33.21;102690.44;4199813;28;19916;-62
2022/11/22 08:29:51;;;;;;;1.20;1.00;;;;;;;22.56;33.12;102685.13;4212841;28;20066;-62
2022/11/22 08:31:53;;;;;;;2.72;1.00;;;;;;;22.56;33.25;102685.13;4212710;28;20378;-62
2022/11/22 08:33:54;;;;;;;2.05;1.20;;;;;;;22.46;33.38;102673.78;4212623;28;20441;-62
2022/11/22 08:35:56;;;;;;;2.17;1.10;;;;;;;22.53;33.10;102684.78;4209708;28;20040;-62
2022/11/22 08:37:57;;;;;;;1.75;1.10;;;;;;;22.30;33.21;102647.50;4217205;28;20078;-62
2022/11/22 08:39:58;;;;;;;1.13;1.02;;;;;;;22.52;33.34;102685.88;4200070;28;20479;-62
2022/11/22 08:42:00;;;;;;;1.50;1.10;;;;;;;22.50;33.50;102688.06;4200722;28;20048;-62
2022/11/22 08:44:04;;;;;;;2.25;1.10;;;;;;;22.50;33.34;102682.50;4209741;28;20097;-60
2022/11/22 08:46:09;;;;;;;2.13;1.23;;;;;;;22.29;33.39;102651.41;4199689;28;20044;-62
2022/11/22 08:48:10;;;;;;;1.90;1.08;;;;;;;22.50;33.22;102685.28;4200040;28;20032;-62
2022/11/22 08:50:16;;;;;;;1.85;1.13;;;;;;;22.49;33.50;102686.34;4217132;28;20044;-62
2022/11/22 08:52:17;;;;;;;1.27;0.82;;;;;;;22.48;33.31;102682.72;4214985;28;20036;-62
2022/11/22 08:54:18;;;;;;;1.20;1.00;;;;;;;22.49;33.51;102694.72;4200139;28;20032;-62
2022/11/22 08:56:20;;;;;;;2.55;1.20;;;;;;;22.30;33.32;102660.63;4200063;28;20091;-62
2022/11/22 08:58:21;;;;;;;1.90;1.20;;;;;;;22.47;33.37;102686.63;4199819;28;20041;-62
2022/11/22 09:00:23;;;;;;;1.30;0.90;;;;;;;22.46;33.08;102687.72;4208740;28;20040;-62
2022/11/22 09:02:24;;;;;;;1.77;1.00;;;;;;;22.49;33.27;102689.16;4215262;28;20036;-62
2022/11/22 09:04:26;;;;;;;1.83;1.05;;;;;;;22.45;33.42;102679.59;4215284;28;20500;-62
2022/11/22 09:06:27;;;;;;;2.10;1.15;;;;;;;22.47;33.58;102685.78;4199543;28;20094;-62
2022/11/22 09:08:28;;;;;;;1.73;1.10;;;;;;;22.46;33.14;102689.66;4210012;28;20040;-62
2022/11/22 09:10:32;;;;;;;1.65;1.10;;;;;;;22.44;33.44;102680.69;4215602;28;20066;-61
2022/11/22 09:12:33;;;;;;;1.92;1.13;;;;;;;22.46;33.36;102689.66;4216158;28;20035;-61
2022/11/22 09:14:35;;;;;;;1.05;0.90;;;;;;;22.45;33.14;102688.81;4216775;28;20036;-62
2022/11/22 09:16:36;;;;;;;0.98;0.80;;;;;;;22.46;33.16;102695.25;4216632;28;20642;-62
2022/11/22 09:18:38;;;;;;;1.42;1.25;;;;;;;22.45;33.37;102699.13;4216147;28;20105;-62
2022/11/22 09:20:42;;;;;;;2.33;1.20;;;;;;;22.44;33.29;102689.91;4215186;28;20044;-62
2022/11/22 09:22:43;;;;;;;1.00;0.90;;;;;;;22.26;33.25;102668.63;4215048;28;20486;-62
2022/11/22 09:24:44;;;;;;;1.42;1.25;;;;;;;22.44;33.22;102697.41;4216086;28;20036;-62
2022/11/22 09:26:48;;;;;;;3.28;1.17;;;;;;;22.25;33.12;102669.72;4205012;28;20048;-62
2022/11/22 09:28:50;;;;;;;1.90;1.13;;;;;;;22.43;33.20;102695.75;4208647;28;20036;-61
2022/11/22 09:31:13;;;;;;;2.17;1.40;;;;;;;22.39;33.35;102694.53;4199613;28;20048;-61
2022/11/22 09:33:14;;;;;;;1.85;1.35;;;;;;;22.41;33.35;102698.78;4199326;28;20094;-62
2022/11/22 09:35:24;;;;;;;1.20;1.10;;;;;;;22.41;33.34;102698.78;4200208;28;20045;-62
2022/11/22 09:37:25;;;;;;;2.20;1.23;;;;;;;21.80;33.05;102589.63;4199512;28;20134;-62
2022/11/22 09:39:26;;;;;;;1.38;1.02;;;;;;;22.42;32.95;102691.25;4199940;28;20106;-62
2022/11/22 09:42:05;;;;;;;2.03;1.25;;;;;;;22.40;33.02;102688.69;4199106;28;20122;-61
2022/11/22 09:44:35;;;;;;;1.95;1.30;;;;;;;22.42;33.09;102694.06;4205516;28;20430;-62
2022/11/22 09:46:46;;;;;;;2.03;1.35;;;;;;;22.45;33.26;102693.53;4202698;28;20556;-62